createdAt,value
2018-09-04T00:02:20.518Z,9.90
2018-09-04T00:04:48.794Z,10.23
2018-09-04T00:07:20.038Z,9.50
2018-09-04T00:09:48.929Z,8.63
2018-09-04T00:12:17.407Z,9.67
2018-09-04T00:14:45.764Z,8.73
2018-09-04T00:17:14.112Z,10.80
2018-09-04T00:19:42.466Z,10.48
2018-09-04T00:22:10.786Z,10.23
2018-09-04T00:24:39.315Z,11.20
2018-09-04T00:27:07.957Z,9.90
2018-09-04T00:29:36.245Z,11.75
2018-09-04T00:32:04.839Z,10.67
2018-09-04T00:34:33.126Z,13.08
2018-09-04T00:37:01.404Z,14.40
2018-09-04T00:39:29.669Z,12.75
2018-09-04T00:41:57.971Z,16.13
2018-09-04T00:44:26.278Z,14.20
2018-09-04T00:46:54.598Z,17.82
2018-09-04T00:49:22.881Z,18.13
2018-09-04T00:51:51.222Z,17.10
2018-09-04T00:54:19.537Z,15.30
2018-09-04T00:56:48.007Z,18.03
2018-09-04T00:59:16.294Z,21.52
2018-09-04T01:01:44.658Z,17.53
2018-09-04T01:04:13.055Z,17.37
2018-09-04T01:06:41.352Z,20.10
2018-09-04T01:09:09.626Z,16.67
2018-09-04T01:11:37.926Z,18.55
2018-09-04T01:14:06.367Z,18.23
2018-09-04T01:16:34.691Z,19.85
2018-09-04T01:19:03.013Z,15.67
2018-09-04T01:21:31.620Z,16.27
2018-09-04T01:24:00.195Z,18.63
2018-09-04T01:26:29.258Z,19.77
2018-09-04T01:28:58.170Z,27.58
2018-09-04T01:31:26.446Z,29.35
2018-09-04T01:33:54.754Z,29.17
2018-09-04T01:36:23.088Z,28.32
2018-09-04T01:38:51.370Z,25.10
2018-09-04T01:41:21.195Z,23.33
2018-09-04T01:43:49.523Z,22.07
2018-09-04T01:46:18.024Z,20.17
2018-09-04T01:48:46.991Z,22.57
2018-09-04T01:51:15.666Z,22.17
2018-09-04T01:53:44.010Z,1502.75
2018-09-04T01:56:12.390Z,1999.90
2018-09-04T01:58:40.750Z,1999.90
2018-09-04T02:01:10.145Z,1999.90
2018-09-04T02:03:38.473Z,1999.90
2018-09-04T02:06:06.785Z,1999.90
2018-09-04T02:08:35.316Z,14.30
2018-09-04T02:11:03.623Z,136.72
2018-09-04T02:13:31.869Z,14.87
2018-09-04T02:16:00.156Z,24.70
2018-09-04T02:18:28.480Z,23.37
2018-09-04T02:20:57.158Z,86.05
2018-09-04T02:23:25.473Z,19.60
2018-09-04T02:25:53.811Z,15.20
2018-09-04T02:28:22.154Z,176.87
2018-09-04T02:30:50.519Z,92.13
2018-09-04T02:33:18.951Z,28.47
2018-09-04T02:35:47.267Z,321.67
2018-09-04T02:38:15.567Z,21.87
2018-09-04T02:40:44.420Z,24.17
2018-09-04T02:43:12.727Z,22.63
2018-09-04T02:45:41.250Z,19.67
2018-09-04T02:48:09.752Z,21.17
2018-09-04T02:50:38.051Z,12.88
2018-09-04T02:53:06.404Z,15.70
2018-09-04T02:55:34.770Z,18.77
2018-09-04T02:58:03.094Z,18.00
2018-09-04T03:00:31.388Z,16.85
2018-09-04T03:02:59.983Z,20.68
2018-09-04T03:05:28.288Z,16.40
2018-09-04T03:07:56.636Z,23.27
2018-09-04T03:10:25.102Z,24.77
2018-09-04T03:12:53.497Z,25.90
2018-09-04T03:15:21.930Z,24.17
2018-09-04T03:17:50.244Z,22.70
2018-09-04T03:20:18.604Z,24.13
2018-09-04T03:22:46.880Z,24.40
2018-09-04T03:25:15.243Z,23.50
2018-09-04T03:27:43.583Z,23.50
2018-09-04T03:30:12.234Z,24.63
2018-09-04T03:32:40.595Z,25.95
2018-09-04T03:35:09.025Z,23.63
2018-09-04T03:37:37.346Z,23.10
2018-09-04T03:40:05.910Z,27.20
2018-09-04T03:42:34.294Z,25.08
2018-09-04T03:45:02.606Z,25.07
2018-09-04T03:47:30.871Z,22.53
2018-09-04T03:49:59.154Z,23.75
2018-09-04T03:52:27.551Z,26.10
2018-09-04T03:54:55.798Z,16.60
2018-09-04T03:57:24.285Z,21.23
2018-09-04T03:59:52.630Z,23.27
2018-09-04T04:02:20.959Z,22.77
2018-09-04T04:04:49.252Z,21.63
2018-09-04T04:07:17.575Z,22.50
2018-09-04T04:09:45.918Z,24.53
2018-09-04T04:12:14.404Z,21.02
2018-09-04T04:14:42.789Z,23.70
2018-09-04T04:17:11.546Z,20.17
2018-09-04T04:19:39.846Z,19.80
2018-09-04T04:22:08.734Z,17.50
2018-09-04T04:24:37.314Z,13.53
2018-09-04T04:27:05.654Z,15.87
2018-09-04T04:29:34.107Z,15.03
2018-09-04T04:32:02.370Z,15.77
2018-09-04T04:34:30.962Z,17.97
2018-09-04T04:36:59.262Z,17.57
2018-09-04T04:39:27.533Z,17.27
2018-09-04T04:41:55.787Z,10.07
2018-09-04T04:44:24.050Z,1999.90
2018-09-04T04:46:52.348Z,1999.90
2018-09-04T04:49:20.784Z,1999.90
2018-09-04T04:51:49.138Z,1999.90
2018-09-04T04:54:17.855Z,1999.90
2018-09-04T04:56:46.099Z,1999.90
2018-09-04T04:59:14.383Z,1999.90
2018-09-04T05:01:42.650Z,1999.90
2018-09-04T05:04:11.257Z,1999.90
2018-09-04T05:06:40.147Z,1999.90
2018-09-04T05:09:09.356Z,1999.90
2018-09-04T05:11:40.154Z,1999.90
2018-09-04T05:14:09.502Z,1999.90
2018-09-04T05:16:38.678Z,1999.90
2018-09-04T05:19:07.637Z,1999.90
2018-09-04T05:21:36.723Z,1999.90
2018-09-04T05:24:05.419Z,1999.90
2018-09-04T05:26:33.711Z,1999.90
2018-09-04T05:29:02.910Z,1999.90
2018-09-04T05:31:35.673Z,1999.90
2018-09-04T05:34:04.033Z,1999.90
2018-09-04T05:36:35.356Z,1999.90
2018-09-04T05:39:04.223Z,1999.90
2018-09-04T05:41:32.777Z,1999.90
2018-09-04T05:44:01.263Z,1999.90
2018-09-04T05:46:35.869Z,1999.90
2018-09-04T05:49:04.206Z,1999.90
2018-09-04T05:51:32.742Z,1999.90
2018-09-04T05:54:02.022Z,1999.90
2018-09-04T05:56:30.342Z,1999.90
2018-09-04T05:58:58.858Z,1999.90
2018-09-04T06:01:27.158Z,1999.90
2018-09-04T06:03:55.486Z,1999.90
2018-09-04T06:06:23.835Z,1999.90
2018-09-04T06:08:52.769Z,1999.90
2018-09-04T06:11:21.102Z,1999.90
2018-09-04T06:13:49.556Z,1999.90
2018-09-04T06:16:17.963Z,1999.90
2018-09-04T06:18:46.753Z,1999.90
2018-09-04T06:21:15.428Z,1999.90
2018-09-04T06:23:43.786Z,1999.90
2018-09-04T06:26:12.150Z,1999.90
2018-09-04T06:28:40.677Z,1999.90
2018-09-04T06:31:09.127Z,1999.90
2018-09-04T06:33:37.564Z,1999.90
2018-09-04T06:36:06.404Z,1999.90
2018-09-04T06:38:34.854Z,1999.90
2018-09-04T06:41:03.158Z,1999.90
2018-09-04T06:43:31.674Z,1999.90
2018-09-04T06:46:00.958Z,1999.90
2018-09-04T06:48:29.256Z,1999.90
2018-09-04T06:50:57.607Z,1999.90
2018-09-04T06:53:26.257Z,1999.90
2018-09-04T06:55:54.570Z,1999.90
2018-09-04T06:58:22.894Z,1999.90
2018-09-04T07:00:51.246Z,1999.90
2018-09-04T07:03:19.527Z,1999.90
2018-09-04T07:05:47.943Z,1999.90
2018-09-04T07:08:16.566Z,1999.90
2018-09-04T07:10:45.028Z,1999.90
2018-09-04T07:13:13.688Z,1999.90
2018-09-04T07:15:46.522Z,1999.90
2018-09-04T07:18:16.234Z,1999.90
2018-09-04T07:20:44.826Z,1999.90
2018-09-04T07:23:13.117Z,1999.90
2018-09-04T07:25:41.434Z,1999.90
2018-09-04T07:28:09.833Z,1999.90
2018-09-04T07:30:38.167Z,1999.90
2018-09-04T07:33:07.260Z,1999.90
2018-09-04T07:35:35.615Z,1999.90
2018-09-04T07:38:03.974Z,1999.90
2018-09-04T07:40:32.359Z,1999.90
2018-09-04T07:43:00.655Z,1999.90
2018-09-04T07:45:33.051Z,1999.90
2018-09-04T07:48:01.366Z,1999.90
2018-09-04T07:50:29.836Z,1999.90
2018-09-04T07:52:58.153Z,1999.90
2018-09-04T07:55:26.514Z,1999.90
2018-09-04T07:57:54.807Z,1999.90
2018-09-04T08:00:23.153Z,1999.90
2018-09-04T08:02:51.475Z,1999.90
2018-09-04T08:05:20.862Z,1999.90
2018-09-04T08:07:49.206Z,1999.90
2018-09-04T08:10:17.590Z,1999.90
2018-09-04T08:12:45.902Z,1999.90
2018-09-04T08:15:14.230Z,1999.90
2018-09-04T08:17:42.570Z,730.50
2018-09-04T08:20:11.022Z,37.48
2018-09-04T08:22:39.304Z,1999.90
2018-09-04T08:25:08.201Z,1999.90
2018-09-04T08:27:37.542Z,1999.90
2018-09-04T08:30:06.369Z,1999.90
2018-09-04T08:32:36.158Z,1999.90
2018-09-04T08:35:05.503Z,1999.90
2018-09-04T08:37:35.231Z,1999.90
2018-09-04T08:40:04.273Z,1999.90
2018-09-04T08:42:34.925Z,1999.90
2018-09-04T08:45:03.690Z,1999.90
2018-09-04T08:47:33.008Z,1999.90
2018-09-04T08:50:02.559Z,1999.90
2018-09-04T08:52:31.518Z,110.27
2018-09-04T08:55:00.315Z,1999.90
2018-09-04T08:57:29.431Z,1999.90
2018-09-04T08:59:58.301Z,54.30
2018-09-04T09:02:27.190Z,2.30
2018-09-04T09:04:56.386Z,1360.87
2018-09-04T09:07:25.650Z,20.93
2018-09-04T09:09:57.051Z,18.73
2018-09-04T09:12:27.025Z,20.43
2018-09-04T09:14:55.419Z,18.73
2018-09-04T09:17:23.742Z,17.52
2018-09-04T09:19:53.949Z,17.27
2018-09-04T09:22:28.417Z,16.27
2018-09-04T09:25:02.190Z,17.47
2018-09-04T09:27:31.723Z,15.30
2018-09-04T09:30:01.282Z,15.50
2018-09-04T09:32:30.378Z,17.13
2018-09-04T09:35:00.753Z,14.57
2018-09-04T09:37:30.667Z,16.23
2018-09-04T09:40:02.219Z,16.17
2018-09-04T09:42:30.902Z,12.33
2018-09-04T09:45:01.257Z,11.35
2018-09-04T09:47:30.965Z,11.40
2018-09-04T09:50:06.468Z,9.17
2018-09-04T09:52:35.200Z,10.93
2018-09-04T09:55:03.958Z,33.40
2018-09-04T09:57:32.767Z,12.15
2018-09-04T10:02:43.395Z,154.40
2018-09-04T10:05:14.095Z,10.03
2018-09-04T10:07:43.007Z,7.37
2018-09-04T10:10:12.173Z,8.43
2018-09-04T10:12:40.847Z,11.93
2018-09-04T10:15:13.161Z,8.13
2018-09-04T10:17:43.355Z,9.83
2018-09-04T10:20:12.433Z,9.20
2018-09-04T10:22:41.465Z,7.97
2018-09-04T10:25:11.755Z,21.13
2018-09-04T10:27:40.755Z,8.97
2018-09-04T10:30:13.656Z,8.40
2018-09-04T10:32:53.606Z,8.13
2018-09-04T10:35:23.356Z,8.33
2018-09-04T10:37:52.659Z,6.87
2018-09-04T10:40:26.810Z,6.60
2018-09-04T10:42:55.804Z,7.37
2018-09-04T10:45:29.490Z,6.30
2018-09-04T10:47:57.864Z,7.53
2018-09-04T10:50:26.107Z,7.47
2018-09-04T10:52:54.611Z,7.07
2018-09-04T10:55:22.848Z,6.87
2018-09-04T10:57:52.228Z,7.37
2018-09-04T11:00:20.393Z,7.40
2018-09-04T11:02:48.695Z,6.63
2018-09-04T11:05:16.940Z,51.35
2018-09-04T11:07:45.243Z,8.07
2018-09-04T11:10:13.519Z,8.27
2018-09-04T11:12:42.102Z,5.92
2018-09-04T11:15:10.394Z,76.40
2018-09-04T11:17:38.966Z,6.43
2018-09-04T11:20:07.298Z,6.07
2018-09-04T11:22:35.537Z,5.65
2018-09-04T11:25:03.915Z,5.20
2018-09-04T11:27:32.184Z,4.25
2018-09-04T11:30:00.562Z,6.30
2018-09-04T11:32:29.014Z,6.23
2018-09-04T11:34:57.712Z,6.53
2018-09-04T11:37:26.026Z,5.58
2018-09-04T11:39:54.636Z,5.30
2018-09-04T11:42:23.050Z,6.17
2018-09-04T11:44:51.526Z,5.13
2018-09-04T11:47:19.828Z,6.90
2018-09-04T11:49:48.090Z,5.37
2018-09-04T11:52:16.759Z,5.75
2018-09-04T11:54:44.963Z,4.73
2018-09-04T11:57:13.265Z,5.37
2018-09-04T11:59:42.574Z,6.05
2018-09-04T12:02:17.856Z,6.20
2018-09-04T12:04:46.460Z,5.70
2018-09-04T12:07:15.134Z,5.42
2018-09-04T12:09:43.611Z,6.12
2018-09-04T12:12:17.586Z,5.13
2018-09-04T12:14:47.096Z,4.90
2018-09-04T12:17:16.266Z,4.97
2018-09-04T12:19:49.206Z,53.07
2018-09-04T12:22:18.730Z,4.90
2018-09-04T12:24:47.945Z,5.80
2018-09-04T12:27:17.305Z,4.90
2018-09-04T12:29:45.516Z,78.57
2018-09-04T12:32:13.907Z,6.03
2018-09-04T12:34:43.052Z,6.33
2018-09-04T12:37:11.601Z,4.93
2018-09-04T12:39:44.535Z,5.92
2018-09-04T12:42:14.162Z,5.33
2018-09-04T12:44:43.361Z,5.47
2018-09-04T12:47:12.039Z,5.30
2018-09-04T12:49:40.481Z,5.22
2018-09-04T12:52:08.900Z,6.17
2018-09-04T12:54:37.471Z,6.40
2018-09-04T12:57:06.183Z,5.25
2018-09-04T12:59:35.683Z,4.90
2018-09-04T13:02:04.022Z,4.87
2018-09-04T13:04:32.872Z,4.22
2018-09-04T13:07:01.775Z,4.90
2018-09-04T13:09:30.747Z,5.23
2018-09-04T13:11:59.171Z,4.53
2018-09-04T13:14:28.200Z,4.67
2018-09-04T13:17:00.914Z,5.40
2018-09-04T13:19:30.151Z,4.30
2018-09-04T13:21:59.252Z,4.57
2018-09-04T13:24:28.589Z,4.60
2018-09-04T13:26:59.431Z,5.10
2018-09-04T13:29:29.318Z,4.47
2018-09-04T13:31:59.419Z,4.87
2018-09-04T13:34:28.313Z,4.57
2018-09-04T13:36:56.735Z,5.73
2018-09-04T13:39:26.044Z,5.25
2018-09-04T13:41:55.132Z,4.30
2018-09-04T13:44:23.542Z,4.73
2018-09-04T13:46:52.347Z,4.22
2018-09-04T13:49:20.856Z,4.87
2018-09-04T13:51:49.768Z,5.10
2018-09-04T13:54:20.360Z,4.87
2018-09-04T13:56:49.295Z,4.97
2018-09-04T13:59:18.340Z,4.50
2018-09-04T14:01:48.278Z,4.97
2018-09-04T14:04:17.758Z,4.60
2018-09-04T14:06:47.530Z,5.27
2018-09-04T14:09:17.657Z,4.33
2018-09-04T14:15:19.101Z,4.63
2018-09-04T14:17:47.361Z,4.97
2018-09-04T14:20:15.674Z,4.63
2018-09-04T14:22:43.936Z,5.00
2018-09-04T14:25:12.185Z,18.20
2018-09-04T14:27:40.369Z,7.13
2018-09-04T14:30:16.142Z,6.00
2018-09-04T14:32:36.939Z,4.40
2018-09-04T14:35:06.272Z,4.90
2018-09-04T14:37:34.826Z,5.03
2018-09-04T14:40:04.344Z,5.12
2018-09-04T14:42:33.864Z,5.20
2018-09-04T14:45:03.314Z,5.67
2018-09-04T14:47:32.604Z,4.57
2018-09-04T14:50:00.806Z,4.27
2018-09-04T14:52:29.055Z,4.20
2018-09-04T14:54:57.348Z,4.83
2018-09-04T14:57:25.527Z,5.30
2018-09-04T15:03:01.010Z,4.33
2018-09-04T15:05:29.224Z,3.87
2018-09-04T15:07:57.455Z,5.93
2018-09-04T15:10:25.686Z,4.53
2018-09-04T15:12:54.046Z,4.67
2018-09-04T15:15:22.622Z,3.98
2018-09-04T15:17:50.877Z,3.97
2018-09-04T15:20:19.132Z,4.37
2018-09-04T15:22:47.336Z,4.30
2018-09-04T15:25:15.638Z,4.83
2018-09-04T15:27:43.762Z,4.78
2018-09-04T15:30:11.978Z,4.50
2018-09-04T15:32:40.278Z,4.80
2018-09-04T15:35:08.622Z,5.00
2018-09-04T15:37:36.879Z,4.53
2018-09-04T15:40:05.790Z,4.00
2018-09-04T15:42:35.010Z,4.53
2018-09-04T15:45:04.149Z,5.40
2018-09-04T15:47:47.476Z,4.40
2018-09-04T15:50:15.756Z,5.57
2018-09-04T15:52:44.056Z,4.53
2018-09-04T15:55:12.317Z,4.75
2018-09-04T15:57:40.569Z,5.13
2018-09-04T16:00:08.890Z,4.60
2018-09-04T16:02:37.168Z,5.37
2018-09-04T16:05:05.437Z,4.70
2018-09-04T16:07:34.942Z,5.77
2018-09-04T16:10:04.611Z,5.13
2018-09-04T16:12:34.195Z,5.50
2018-09-04T16:15:04.721Z,4.97
2018-09-04T16:17:34.634Z,4.57
2018-09-04T16:20:03.889Z,4.10
2018-09-04T16:22:32.473Z,3.63
2018-09-04T16:25:00.719Z,4.37
2018-09-04T16:27:28.952Z,5.17
2018-09-04T16:29:57.201Z,136.80
2018-09-04T16:32:25.439Z,5.00
2018-09-04T16:34:53.832Z,5.20
2018-09-04T16:37:22.065Z,4.15
2018-09-04T16:39:50.303Z,4.77
2018-09-04T16:42:18.563Z,4.80
2018-09-04T16:44:46.860Z,4.35
2018-09-04T16:47:15.101Z,7.03
2018-09-04T16:49:43.308Z,5.33
2018-09-04T16:52:11.521Z,17.75
2018-09-04T16:54:39.741Z,4.37
2018-09-04T16:57:08.006Z,5.03
2018-09-04T16:59:36.587Z,4.72
2018-09-04T17:02:04.993Z,4.40
2018-09-04T17:04:33.652Z,5.40
2018-09-04T17:07:08.097Z,6.87
2018-09-04T17:09:36.377Z,5.10
2018-09-04T17:12:04.778Z,5.30
2018-09-04T17:14:34.455Z,4.90
2018-09-04T17:17:03.615Z,5.20
2018-09-04T17:19:32.325Z,4.63
2018-09-04T17:22:00.536Z,5.62
2018-09-04T17:24:28.731Z,4.70
2018-09-04T17:26:56.945Z,5.27
2018-09-04T17:29:25.226Z,5.20
2018-09-04T17:31:53.562Z,5.87
2018-09-04T17:34:21.683Z,4.58
2018-09-04T17:36:50.063Z,5.10
2018-09-04T17:39:18.254Z,4.65
2018-09-04T17:41:46.452Z,4.97
2018-09-04T17:44:14.669Z,4.37
2018-09-04T17:46:42.898Z,3.70
2018-09-04T17:49:11.245Z,3.85
2018-09-04T17:51:39.520Z,4.73
2018-09-04T17:54:07.780Z,4.00
2018-09-04T17:56:36.277Z,6.40
2018-09-04T17:59:05.107Z,270.10
2018-09-04T18:01:34.033Z,1999.90
2018-09-04T18:04:02.536Z,1999.90
2018-09-04T18:06:30.820Z,1999.90
2018-09-04T18:08:58.999Z,1999.90
2018-09-04T18:11:27.272Z,1999.90
2018-09-04T18:13:55.588Z,1999.90
2018-09-04T18:16:23.888Z,1999.90
2018-09-04T18:18:53.173Z,1999.90
2018-09-04T18:21:21.456Z,1999.90
2018-09-04T18:23:49.660Z,1999.90
2018-09-04T18:26:17.938Z,1999.90
2018-09-04T18:28:46.326Z,1999.90
2018-09-04T18:31:14.578Z,1999.90
2018-09-04T18:33:42.882Z,1999.90
2018-09-04T18:36:11.132Z,1999.90
2018-09-04T18:38:39.437Z,113.17
2018-09-04T18:41:08.019Z,7.15
2018-09-04T18:43:36.312Z,4.60
2018-09-04T18:46:05.250Z,5.53
2018-09-04T18:48:34.650Z,5.92
2018-09-04T18:51:04.802Z,5.67
2018-09-04T18:53:34.173Z,5.63
2018-09-04T18:56:03.450Z,6.13
2018-09-04T18:58:32.831Z,5.83
2018-09-04T19:01:01.832Z,5.30
2018-09-04T19:03:30.161Z,6.53
2018-09-04T19:05:58.389Z,6.50
2018-09-04T19:08:26.787Z,5.80
2018-09-04T19:10:55.001Z,6.37
2018-09-04T19:13:23.393Z,5.70
2018-09-04T19:15:51.801Z,4.80
2018-09-04T19:18:20.052Z,6.60
2018-09-04T19:20:52.040Z,5.50
2018-09-04T19:23:22.805Z,5.20
2018-09-04T19:25:51.101Z,5.87
2018-09-04T19:28:19.396Z,5.77
2018-09-04T19:30:47.661Z,6.85
2018-09-04T19:33:15.980Z,6.20
2018-09-04T19:35:44.232Z,6.22
2018-09-04T19:38:12.535Z,5.78
2018-09-04T19:40:41.139Z,5.70
2018-09-04T19:43:09.621Z,5.72
2018-09-04T19:45:38.175Z,6.63
2018-09-04T19:48:09.482Z,5.27
2018-09-04T19:50:41.088Z,7.40
2018-09-04T19:53:10.117Z,5.67
2018-09-04T19:55:41.539Z,6.40
2018-09-04T19:58:10.047Z,6.27
2018-09-04T20:00:38.444Z,7.92
2018-09-04T20:03:06.700Z,5.63
2018-09-04T20:05:35.009Z,6.50
2018-09-04T20:08:03.970Z,6.13
2018-09-04T20:10:33.831Z,5.83
2018-09-04T20:13:03.621Z,5.87
2018-09-04T20:15:32.772Z,7.73
2018-09-04T20:18:02.388Z,7.43
2018-09-04T20:20:30.642Z,6.20
2018-09-04T20:22:59.950Z,6.40
2018-09-04T20:25:28.374Z,6.95
2018-09-04T20:27:56.770Z,7.47
2018-09-04T20:30:25.166Z,6.50
2018-09-04T20:32:53.484Z,6.53
2018-09-04T20:35:21.685Z,6.47
2018-09-04T20:37:49.952Z,6.00
2018-09-04T20:40:18.805Z,6.37
2018-09-04T20:42:47.358Z,5.77
2018-09-04T20:45:15.593Z,5.95
2018-09-04T20:47:44.738Z,5.90
2018-09-04T20:50:13.486Z,7.97
2018-09-04T21:04:31.025Z,8.53
2018-09-04T21:06:58.221Z,7.23
2018-09-04T21:09:39.533Z,7.87
2018-09-04T21:12:08.011Z,6.30
2018-09-04T21:14:36.318Z,7.95
2018-09-04T21:17:04.679Z,8.47
2018-09-04T21:19:33.242Z,6.80
2018-09-04T21:22:01.537Z,7.63
2018-09-04T21:24:29.848Z,6.73
2018-09-04T21:26:58.124Z,6.50
2018-09-04T21:29:26.445Z,7.70
2018-09-04T21:31:55.728Z,5.63
2018-09-04T21:34:23.970Z,6.67
2018-09-04T21:36:52.287Z,8.87
2018-09-04T21:39:20.598Z,7.45
2018-09-04T21:41:48.880Z,7.13
2018-09-04T21:44:17.237Z,7.37
2018-09-04T21:46:48.439Z,6.33
2018-09-04T21:49:17.713Z,6.70
2018-09-04T21:51:46.029Z,6.67
2018-09-04T21:54:14.360Z,7.40
2018-09-04T21:56:42.659Z,6.35
2018-09-04T21:59:10.965Z,7.20
2018-09-04T22:01:42.633Z,6.20
2018-09-04T22:04:10.904Z,8.37
2018-09-04T22:06:42.669Z,7.00
2018-09-04T22:09:11.958Z,6.53
2018-09-04T22:11:40.343Z,8.00
2018-09-04T22:14:08.695Z,8.03
2018-09-04T22:16:37.080Z,7.60
2018-09-04T22:19:05.369Z,7.13
2018-09-04T22:21:33.653Z,7.57
2018-09-04T22:24:01.936Z,7.67
2018-09-04T22:26:30.192Z,8.35
2018-09-04T22:28:58.440Z,7.63
2018-09-04T22:31:26.686Z,8.50
2018-09-04T22:33:54.996Z,8.70
2018-09-04T22:36:23.272Z,8.57
2018-09-04T22:38:51.557Z,10.00
2018-09-04T22:41:19.828Z,8.30
2018-09-04T22:43:48.057Z,7.50
2018-09-04T22:46:16.357Z,10.03
2018-09-04T22:48:44.636Z,7.95
2018-09-04T22:51:18.198Z,7.83
2018-09-04T22:53:46.495Z,9.43
2018-09-04T22:56:14.771Z,9.73
2018-09-04T22:58:43.036Z,8.80
2018-09-04T23:01:11.286Z,9.00
2018-09-04T23:03:39.533Z,8.60
2018-09-04T23:06:07.770Z,11.48
2018-09-04T23:08:36.053Z,9.93
2018-09-04T23:11:04.331Z,9.53
2018-09-04T23:13:32.600Z,9.78
2018-09-04T23:16:00.848Z,9.30
2018-09-04T23:18:29.112Z,10.93
2018-09-04T23:20:57.345Z,10.30
2018-09-04T23:23:25.572Z,7.73
2018-09-04T23:25:53.775Z,11.20
2018-09-04T23:28:22.067Z,9.40
2018-09-04T23:30:50.385Z,9.40
2018-09-04T23:33:18.634Z,10.88
2018-09-04T23:35:46.983Z,11.65
2018-09-04T23:38:15.281Z,12.47
2018-09-04T23:40:43.594Z,10.07
2018-09-04T23:43:11.922Z,10.63
2018-09-04T23:45:40.359Z,10.97
2018-09-04T23:48:08.775Z,11.05
2018-09-04T23:50:37.050Z,13.53
2018-09-04T23:53:05.347Z,11.63
2018-09-04T23:55:33.671Z,11.10
2018-09-04T23:58:02.031Z,11.00
